EBCI - Charleroi/Gosselies, Belgium
Distance de la station: NE 18km
Mise à jour: 21/11/2017 18:20
nuageux
nuageux
 Wind from SSO
Vent: SSO 22 km/h
Température: 9°C
Température ressentie: 6°C
Point de rosée: 7°C
Humidité: 87%
Baromètre: 1013 hPa
Ciel: nuageux
Visibilité: 10 km
Détails du ciel: quelques nuages 366 m
nuageux 610 m
2017/11/21 17:20 EBCI 211720Z 20012KT 9999 FEW012 BKN020 09/07 Q1013 TEMPO 6000 -DZ BKN007
EBFS - Florennes, Belgium
Distance de la station: ESE 31km
Mise à jour: 21/11/2017 18:25
Light drizzle, nuageux
Light drizzle, nuageux
 Wind from SSO
Vent: SSO 19 km/h
Température: 7°C
Température ressentie: 4°C
Point de rosée: 6°C
Humidité: 93%
Baromètre: 1014 hPa
Résumé: Light Drizzle
Ciel: nuageux
Visibilité: 8 km
Détails du ciel: partiellement nuageux 244 m
nuageux 335 m
2017/11/21 17:25 EBFS 211725Z 21010KT 8000 -DZ SCT008 BKN011 07/06 Q1014 GRN GRN
EBCV - Chievres, Belgium
Distance de la station: NO 40km
Mise à jour: 21/11/2017 18:25
couvert
couvert
 Wind from SSO
Vent: SSO 22 km/h
Température: 10°C
Température ressentie: 7°C
Point de rosée: 8°C
Humidité: 88%
Baromètre: 1012 hPa
Ciel: couvert
Visibilité: 10 km
Détails du ciel: couvert 792 m
2017/11/21 17:25 EBCV 211725Z AUTO 20012KT 9999 OVC026/// 10/08 Q1012 BLU
 
EBBE - Beauvechain, Belgium
Distance de la station: NE 57km
Mise à jour: 21/11/2017 18:25
nuageux
nuageux
 Wind from SSO
Vent: SSO 20 km/h
Température: 9°C
Température ressentie: 6°C
Point de rosée: 7°C
Humidité: 87%
Baromètre: 1012 hPa
Ciel: nuageux
Visibilité: 10 km
Détails du ciel: nuageux 732 m
2017/11/21 17:25 EBBE 211725Z 20011KT 9999 BKN024 09/07 Q1012 WHT BLU TEMPO WHT
EBBR - Brussels National, Belgium
Distance de la station: NNE 63km
Mise à jour: 21/11/2017 18:20
nuageux
nuageux
 Wind from SSO
Vent: SSO 20 km/h
Température: 10°C
Température ressentie: 7°C
Point de rosée: 7°C
Humidité: 82%
Baromètre: 1012 hPa
Ciel: nuageux
Visibilité: 10 km
Détails du ciel: nuageux 853 m
2017/11/21 17:20 EBBR 211720Z 21011KT 9999 BKN028 10/07 Q1012 NOSIG
LFQI - Cambrai/Epinoy, France
Distance de la station: O 82km
Mise à jour: 29/06/2012 12:30
NOT Current

 Wind from SO
Vent: SO 17 km/h
Température: 18°C
Point de rosée: 14°C
Humidité: 78%
Baromètre: 1009 hPa
2012/06/29 10:30 LFQI 291030Z AUTO 22009KT //// // ///////// 18/14 Q1009
 
LFQQ - Lille/Lesquin, France
Distance de la station: ONO 86km
Mise à jour: 21/11/2017 18:30
couvert
couvert
 Wind from SSO
Vent: SSO 26 km/h
Température: 11°C
Point de rosée: 8°C
Humidité: 82%
Baromètre: 1012 hPa
Ciel: couvert
Visibilité: 10 km
Détails du ciel: couvert 1067 m
2017/11/21 17:30 LFQQ 211730Z AUTO 20014KT 9999 OVC035 11/08 Q1012 NOSIG
EBLG - Bierset/Liege, Belgium
Distance de la station: ENE 89km
Mise à jour: 21/11/2017 18:20
nuageux
nuageux
 Wind from SSO
Vent: SSO 28 km/h
Température: 8°C
Température ressentie: 4°C
Point de rosée: 7°C
Humidité: 93%
Baromètre: 1013 hPa
Ciel: nuageux
Visibilité: 10 km
Détails du ciel: partiellement nuageux 366 m
nuageux 701 m
2017/11/21 17:20 EBLG 211720Z 21015KT 9999 SCT012 BKN023 08/07 Q1013 NOSIG
EBDT - Schaffen, Belgium
Distance de la station: NE 93km
Mise à jour: 21/11/2017 18:25
nuageux
nuageux
 Wind from SSO
Vent: SSO 20 km/h
Température: 10°C
Température ressentie: 7°C
Point de rosée: 7°C
Humidité: 82%
Baromètre: 1012 hPa
Ciel: nuageux
Visibilité: 10 km
Détails du ciel: nuageux 914 m
2017/11/21 17:25 EBDT 211725Z AUTO 20011KT 9999 BKN030/// 10/07 Q1012 BLU
 
EBAW - Antwerp/Deurne, Belgium
Distance de la station: N 96km
Mise à jour: 21/11/2017 18:20
nuageux
nuageux
 Wind from SSO
Vent: SSO 22 km/h
Température: 11°C
Point de rosée: 8°C
Humidité: 82%
Baromètre: 1011 hPa
Ciel: nuageux
Visibilité: 10 km
Détails du ciel: nuageux 762 m
2017/11/21 17:20 EBAW 211720Z 21012KT 9999 BKN025 11/08 Q1011 NOSIG
LFAQ - Bray, France
Distance de la station: OSO 119km
Mise à jour: 21/11/2017 18:30
couvert
couvert
 Wind from SSO
Vent: SSO 22 km/h
Température: 10°C
Température ressentie: 7°C
Point de rosée: 8°C
Humidité: 88%
Baromètre: 1013 hPa
Ciel: couvert
Visibilité: 10 km
Détails du ciel: couvert 762 m
2017/11/21 17:30 LFAQ 211730Z AUTO 20012KT 9999 OVC025 10/08 Q1013 NOSIG
LFSR - Reims/Champagne, France
Distance de la station: S 120km
Mise à jour: 16/04/2012 09:00
NOT Current
partiellement nuageux
partiellement nuageux
 Wind from N
Vent: N 17 km/h
Température: 4°C
Température ressentie: 0°C
Point de rosée: 0°C
Humidité: 75%
Baromètre: 1022 hPa
Ciel: partiellement nuageux
Visibilité: 10 km
2012/04/16 07:00 LFSR 160700Z AUTO 01009KT 340V070 9999 NSC 04/00 Q1022
 
EHWO - Woensdrecht, Netherlands
Distance de la station: N 122km
Mise à jour: 21/11/2017 18:25
couvert
couvert
 Wind from SSO
Vent: SSO 17 km/h
Température: 11°C
Point de rosée: 9°C
Humidité: 88%
Baromètre: 1010 hPa
Ciel: couvert
Visibilité: 10 km
Détails du ciel: nuageux 488 m
couvert 610 m
2017/11/21 17:25 EHWO 211725Z AUTO 21009KT 180V240 9999 BKN016 OVC020 11/09 Q1010 WHT
EHBK - Zuid-Limburg, Netherlands
Distance de la station: ENE 123km
Mise à jour: 21/11/2017 18:25
couvert
couvert
 Wind from SSO
Vent: SSO 26 km/h
Température: 9°C
Température ressentie: 6°C
Point de rosée: 7°C
Humidité: 87%
Baromètre: 1012 hPa
Ciel: couvert
Visibilité: 10 km
Détails du ciel: quelques nuages 427 m
couvert 762 m
2017/11/21 17:25 EHBK 211725Z AUTO 21014KT 9999 FEW014 OVC025 09/07 Q1012 NOSIG
EBBL - Kleine-Brogel, Belgium
Distance de la station: NE 124km
Mise à jour: 21/11/2017 18:25
nuageux
nuageux
 Wind from SO
Vent: SO 19 km/h
Température: 10°C
Température ressentie: 7°C
Point de rosée: 8°C
Humidité: 88%
Baromètre: 1011 hPa
Ciel: nuageux
Visibilité: 10 km
Détails du ciel: quelques nuages 457 m
nuageux 914 m
2017/11/21 17:25 EBBL 211725Z 22010KT 9999 FEW015 BKN030 10/08 Q1011 BLU BLU TEMPO WHT
 
EBLB - Elsenborn, Belgium
Distance de la station: E 135km
Mise à jour: 21/11/2017 18:25
brume, couvert
brume, couvert
 Wind from SO
Vent: SO 15 km/h
Température: 5°C
Température ressentie: 2°C
Point de rosée: 5°C
Humidité: 100%
Baromètre: 1013 hPa
Résumé: brume
Ciel: couvert
Visibilité: 4 km
Détails du ciel: couvert 122 m
2017/11/21 17:25 EBLB 211725Z AUTO 23008KT 4300 BR OVC004/// 05/05 Q1013 YLO
EBOS - Oostende Airport, Belgium
Distance de la station: NO 136km
Mise à jour: 21/11/2017 18:20
nuageux
nuageux
 Wind from SO
Vent: SO 24 km/h
Température: 11°C
Point de rosée: 9°C
Humidité: 88%
Baromètre: 1010 hPa
Ciel: nuageux
Visibilité: 10 km
Détails du ciel: partiellement nuageux 457 m
nuageux 579 m
nuageux 914 m
2017/11/21 17:20 EBOS 211720Z 22013KT 9999 SCT015 BKN019 BKN030 11/09 Q1010 TEMPO 25017G27KT
EBFN - Koksijde, Belgium
Distance de la station: NO 140km
Mise à jour: 21/11/2017 18:25
nuageux
nuageux
 Wind from SO
Vent: SO 22 km/h
Température: 11°C
Point de rosée: 10°C
Humidité: 94%
Baromètre: 1010 hPa
Ciel: nuageux
Visibilité: 10 km
Détails du ciel: quelques nuages 274 m
nuageux 457 m
2017/11/21 17:25 EBFN 211725Z 22012KT 9999 FEW009 BKN015 11/10 Q1010 WHT WHT TEMPO GRN
 
ETNG - Geilenkirchen, Germany
Distance de la station: ENE 142km
Mise à jour: 21/11/2017 17:50
nuageux
nuageux
 Wind from SO
Vent: SO 20 km/h, Rafale: 43 km/h
Température: 10°C
Température ressentie: 7°C
Point de rosée: 7°C
Humidité: 82%
Baromètre: 1011 hPa
Ciel: nuageux
Visibilité: 10 km
Détails du ciel: partiellement nuageux 366 m
nuageux 762 m
2017/11/21 16:50 ETNG 211650Z 23011G23KT 9999 SCT012 BKN025 10/07 Q1011 NOSIG
EHGR - Gilze-Rijen, Netherlands
Distance de la station: NNE 143km
Mise à jour: 21/11/2017 18:25
couvert
couvert
 Wind from SSO
Vent: SSO 19 km/h
Température: 10°C
Température ressentie: 7°C
Point de rosée: 8°C
Humidité: 88%
Baromètre: 1010 hPa
Ciel: couvert
Visibilité: 10 km
Détails du ciel: quelques nuages 1006 m
couvert 4572 m
2017/11/21 17:25 EHGR 211725Z AUTO 21010KT 170V270 9999 FEW033 OVC150 10/08 Q1010 BLU 21010KT 9999 SCT015 BKN020
EHEH - Eindhoven, Netherlands
Distance de la station: NNE 147km
Mise à jour: 21/11/2017 18:25
couvert
couvert
 Wind from SSO
Vent: SSO 20 km/h
Température: 10°C
Température ressentie: 7°C
Point de rosée: 8°C
Humidité: 88%
Baromètre: 1010 hPa
Ciel: couvert
Visibilité: 10 km
Détails du ciel: quelques nuages 427 m
couvert 914 m
2017/11/21 17:25 EHEH 211725Z AUTO 21011KT 180V240 9999 FEW014 OVC030 10/08 Q1010 BLU 21012KT 9999 SCT012 BKN015 BKN020
 
ELLX - Luxembourg, Luxembourg
Distance de la station: ESE 162km
Mise à jour: 21/11/2017 18:20
Light drizzle, nuageux
Light drizzle, nuageux
 Wind from SO
Vent: SO 11 km/h
Température: 6°C
Température ressentie: 4°C
Point de rosée: 6°C
Humidité: 100%
Baromètre: 1015 hPa
Résumé: Light Drizzle
Ciel: nuageux
Visibilité: 7 km
Détails du ciel: quelques nuages 152 m
nuageux 213 m
2017/11/21 17:20 ELLX 211720Z 23006KT 190V250 7000 -DZ FEW005 BKN007 06/06 Q1015 TEMPO 4500 BR
EHVK - Volkel, Netherlands
Distance de la station: NE 174km
Mise à jour: 21/11/2017 18:25
couvert
couvert
 Wind from SO
Vent: SO 22 km/h
Température: 11°C
Point de rosée: 9°C
Humidité: 88%
Baromètre: 1010 hPa
Ciel: couvert
Visibilité: 10 km
Détails du ciel: nuageux 366 m
couvert 457 m
2017/11/21 17:25 EHVK 211725Z AUTO 22012KT 190V250 9999 BKN012 OVC015 11/09 Q1010 GRN
LFOK - Chalons/Vatry, France
Distance de la station: S 174km
Mise à jour: 21/11/2017 18:30
couvert
couvert
 Wind from SSO
Vent: SSO 13 km/h
Température: 8°C
Température ressentie: 6°C
Point de rosée: 6°C
Humidité: 87%
Baromètre: 1016 hPa
Ciel: couvert
Visibilité: 10 km
Détails du ciel: couvert 579 m
2017/11/21 17:30 LFOK 211730Z AUTO 21007KT 9999 OVC019 08/06 Q1016 NOSIG

Script from Saratoga-Weather.org